sensor_id;sensor_type;location;lat;lon;timestamp;P1;durP1;ratioP1;P2;durP2;ratioP2
59167;SDS011;44948;55.046;73.266;2022-09-16T00:00:50;32.42;;;16.67;;
59167;SDS011;44948;55.046;73.266;2022-09-16T00:02:32;32.03;;;16.35;;
59167;SDS011;44948;55.046;73.266;2022-09-16T00:04:17;44.50;;;17.42;;
59167;SDS011;44948;55.046;73.266;2022-09-16T00:06:03;43.45;;;17.48;;
59167;SDS011;44948;55.046;73.266;2022-09-16T00:07:52;34.67;;;18.15;;
59167;SDS011;44948;55.046;73.266;2022-09-16T00:09:39;38.10;;;19.33;;
59167;SDS011;44948;55.046;73.266;2022-09-16T00:11:21;40.13;;;21.23;;
59167;SDS011;44948;55.046;73.266;2022-09-16T00:13:04;34.10;;;16.60;;
59167;SDS011;44948;55.046;73.266;2022-09-16T00:14:47;34.22;;;17.15;;
59167;SDS011;44948;55.046;73.266;2022-09-16T00:16:29;37.35;;;17.35;;
59167;SDS011;44948;55.046;73.266;2022-09-16T00:18:12;38.25;;;18.27;;
59167;SDS011;44948;55.046;73.266;2022-09-16T00:19:55;35.33;;;18.70;;
59167;SDS011;44948;55.046;73.266;2022-09-16T00:21:39;36.65;;;19.40;;
59167;SDS011;44948;55.046;73.266;2022-09-16T00:23:24;47.40;;;22.75;;
59167;SDS011;44948;55.046;73.266;2022-09-16T00:25:09;41.38;;;21.45;;
59167;SDS011;44948;55.046;73.266;2022-09-16T00:26:52;44.30;;;22.70;;
59167;SDS011;44948;55.046;73.266;2022-09-16T00:28:38;55.75;;;27.20;;
59167;SDS011;44948;55.046;73.266;2022-09-16T00:30:20;64.20;;;26.83;;
59167;SDS011;44948;55.046;73.266;2022-09-16T00:32:06;49.95;;;25.10;;
59167;SDS011;44948;55.046;73.266;2022-09-16T00:33:50;48.42;;;22.42;;
59167;SDS011;44948;55.046;73.266;2022-09-16T00:35:35;39.67;;;19.00;;
59167;SDS011;44948;55.046;73.266;2022-09-16T00:37:21;32.50;;;17.42;;
59167;SDS011;44948;55.046;73.266;2022-09-16T00:39:04;40.05;;;21.15;;
59167;SDS011;44948;55.046;73.266;2022-09-16T00:40:49;38.80;;;21.42;;
59167;SDS011;44948;55.046;73.266;2022-09-16T00:42:35;53.08;;;23.80;;
59167;SDS011;44948;55.046;73.266;2022-09-16T00:46:44;42.70;;;20.38;;
59167;SDS011;44948;55.046;73.266;2022-09-16T00:48:30;49.58;;;20.58;;
59167;SDS011;44948;55.046;73.266;2022-09-16T00:50:20;45.47;;;19.92;;
59167;SDS011;44948;55.046;73.266;2022-09-16T00:52:24;90.15;;;40.35;;
59167;SDS011;44948;55.046;73.266;2022-09-16T00:54:12;111.95;;;50.63;;
59167;SDS011;44948;55.046;73.266;2022-09-16T00:55:59;94.65;;;39.67;;
59167;SDS011;44948;55.046;73.266;2022-09-16T00:57:51;84.07;;;35.40;;
59167;SDS011;44948;55.046;73.266;2022-09-16T00:59:36;76.03;;;33.78;;
59167;SDS011;44948;55.046;73.266;2022-09-16T01:01:24;73.78;;;36.65;;
59167;SDS011;44948;55.046;73.266;2022-09-16T01:03:07;69.47;;;34.50;;
59167;SDS011;44948;55.046;73.266;2022-09-16T01:04:55;86.68;;;39.60;;
59167;SDS011;44948;55.046;73.266;2022-09-16T01:06:45;93.78;;;46.05;;
59167;SDS011;44948;55.046;73.266;2022-09-16T01:08:32;91.22;;;39.75;;
59167;SDS011;44948;55.046;73.266;2022-09-16T01:10:15;68.32;;;33.53;;
59167;SDS011;44948;55.046;73.266;2022-09-16T01:12:00;73.57;;;31.73;;
59167;SDS011;44948;55.046;73.266;2022-09-16T01:13:42;67.38;;;31.15;;
59167;SDS011;44948;55.046;73.266;2022-09-16T01:15:40;62.83;;;31.67;;
59167;SDS011;44948;55.046;73.266;2022-09-16T01:26:34;71.03;;;28.77;;
59167;SDS011;44948;55.046;73.266;2022-09-16T01:34:48;85.50;;;28.65;;
59167;SDS011;44948;55.046;73.266;2022-09-16T01:38:45;75.45;;;29.08;;
59167;SDS011;44948;55.046;73.266;2022-09-16T01:40:50;70.15;;;25.73;;
59167;SDS011;44948;55.046;73.266;2022-09-16T01:42:42;71.20;;;25.05;;
59167;SDS011;44948;55.046;73.266;2022-09-16T01:44:31;69.43;;;24.02;;
59167;SDS011;44948;55.046;73.266;2022-09-16T01:50:29;71.28;;;23.38;;
59167;SDS011;44948;55.046;73.266;2022-09-16T01:52:24;51.38;;;20.77;;
59167;SDS011;44948;55.046;73.266;2022-09-16T01:54:18;72.07;;;22.30;;
59167;SDS011;44948;55.046;73.266;2022-09-16T01:56:11;65.15;;;21.77;;
59167;SDS011;44948;55.046;73.266;2022-09-16T01:58:22;45.17;;;20.52;;
59167;SDS011;44948;55.046;73.266;2022-09-16T02:00:11;59.17;;;21.38;;
59167;SDS011;44948;55.046;73.266;2022-09-16T02:03:44;49.00;;;19.73;;
59167;SDS011;44948;55.046;73.266;2022-09-16T02:05:36;50.45;;;20.80;;
59167;SDS011;44948;55.046;73.266;2022-09-16T02:07:28;48.70;;;19.67;;
59167;SDS011;44948;55.046;73.266;2022-09-16T02:09:32;57.13;;;20.40;;
59167;SDS011;44948;55.046;73.266;2022-09-16T02:11:20;61.42;;;19.13;;
59167;SDS011;44948;55.046;73.266;2022-09-16T02:13:15;59.97;;;20.25;;
59167;SDS011;44948;55.046;73.266;2022-09-16T02:15:05;48.60;;;19.80;;
59167;SDS011;44948;55.046;73.266;2022-09-16T02:17:03;59.15;;;19.20;;
59167;SDS011;44948;55.046;73.266;2022-09-16T02:18:53;54.00;;;19.58;;
59167;SDS011;44948;55.046;73.266;2022-09-16T02:20:42;41.47;;;17.98;;
59167;SDS011;44948;55.046;73.266;2022-09-16T02:22:31;59.67;;;19.73;;
59167;SDS011;44948;55.046;73.266;2022-09-16T02:24:18;57.08;;;20.27;;
59167;SDS011;44948;55.046;73.266;2022-09-16T02:26:08;61.17;;;19.60;;
59167;SDS011;44948;55.046;73.266;2022-09-16T02:27:59;59.80;;;19.63;;
59167;SDS011;44948;55.046;73.266;2022-09-16T02:29:49;48.92;;;18.38;;
59167;SDS011;44948;55.046;73.266;2022-09-16T02:31:36;45.00;;;18.50;;
59167;SDS011;44948;55.046;73.266;2022-09-16T02:33:20;50.80;;;18.52;;
59167;SDS011;44948;55.046;73.266;2022-09-16T02:35:11;52.70;;;19.23;;
59167;SDS011;44948;55.046;73.266;2022-09-16T02:37:13;47.83;;;19.63;;
59167;SDS011;44948;55.046;73.266;2022-09-16T02:39:13;61.42;;;19.73;;
59167;SDS011;44948;55.046;73.266;2022-09-16T02:41:04;44.80;;;17.77;;
59167;SDS011;44948;55.046;73.266;2022-09-16T02:42:47;46.83;;;18.67;;
59167;SDS011;44948;55.046;73.266;2022-09-16T02:44:30;51.15;;;18.70;;
59167;SDS011;44948;55.046;73.266;2022-09-16T02:48:10;52.78;;;23.33;;
59167;SDS011;44948;55.046;73.266;2022-09-16T02:50:09;55.05;;;24.73;;
59167;SDS011;44948;55.046;73.266;2022-09-16T02:56:21;52.40;;;19.77;;
59167;SDS011;44948;55.046;73.266;2022-09-16T02:58:05;45.75;;;19.45;;
59167;SDS011;44948;55.046;73.266;2022-09-16T02:59:55;47.47;;;17.88;;
59167;SDS011;44948;55.046;73.266;2022-09-16T03:01:45;43.95;;;16.80;;
59167;SDS011;44948;55.046;73.266;2022-09-16T03:03:31;38.40;;;15.80;;
59167;SDS011;44948;55.046;73.266;2022-09-16T03:05:16;39.10;;;15.27;;
59167;SDS011;44948;55.046;73.266;2022-09-16T03:08:51;34.50;;;13.20;;
59167;SDS011;44948;55.046;73.266;2022-09-16T03:10:41;29.80;;;11.85;;
59167;SDS011;44948;55.046;73.266;2022-09-16T03:12:45;30.38;;;11.85;;
59167;SDS011;44948;55.046;73.266;2022-09-16T03:18:58;20.73;;;9.35;;
59167;SDS011;44948;55.046;73.266;2022-09-16T03:21:15;15.10;;;8.02;;
59167;SDS011;44948;55.046;73.266;2022-09-16T03:27:49;12.57;;;5.03;;
59167;SDS011;44948;55.046;73.266;2022-09-16T03:29:59;9.55;;;4.15;;
59167;SDS011;44948;55.046;73.266;2022-09-16T03:33:48;8.68;;;3.80;;
59167;SDS011;44948;55.046;73.266;2022-09-16T03:35:42;10.65;;;3.35;;
59167;SDS011;44948;55.046;73.266;2022-09-16T03:37:37;9.13;;;3.42;;
59167;SDS011;44948;55.046;73.266;2022-09-16T03:39:21;9.18;;;4.22;;
59167;SDS011;44948;55.046;73.266;2022-09-16T03:41:07;7.45;;;3.03;;
59167;SDS011;44948;55.046;73.266;2022-09-16T03:42:51;4.70;;;3.30;;
59167;SDS011;44948;55.046;73.266;2022-09-16T03:44:38;9.70;;;3.78;;
59167;SDS011;44948;55.046;73.266;2022-09-16T03:46:21;6.20;;;3.30;;
59167;SDS011;44948;55.046;73.266;2022-09-16T03:48:09;12.25;;;3.72;;
59167;SDS011;44948;55.046;73.266;2022-09-16T03:49:59;7.40;;;4.15;;
59167;SDS011;44948;55.046;73.266;2022-09-16T03:51:42;10.38;;;5.07;;
59167;SDS011;44948;55.046;73.266;2022-09-16T03:53:24;8.07;;;3.63;;
59167;SDS011;44948;55.046;73.266;2022-09-16T03:55:08;8.10;;;3.60;;
59167;SDS011;44948;55.046;73.266;2022-09-16T03:56:54;9.15;;;4.30;;
59167;SDS011;44948;55.046;73.266;2022-09-16T03:58:41;9.52;;;3.63;;
59167;SDS011;44948;55.046;73.266;2022-09-16T04:00:26;10.27;;;3.85;;
59167;SDS011;44948;55.046;73.266;2022-09-16T04:02:12;13.18;;;4.50;;
59167;SDS011;44948;55.046;73.266;2022-09-16T04:04:00;13.48;;;4.95;;
59167;SDS011;44948;55.046;73.266;2022-09-16T04:05:42;9.98;;;4.30;;
59167;SDS011;44948;55.046;73.266;2022-09-16T04:07:35;7.70;;;4.00;;
59167;SDS011;44948;55.046;73.266;2022-09-16T04:09:21;8.38;;;3.42;;
59167;SDS011;44948;55.046;73.266;2022-09-16T04:12:47;5.25;;;2.75;;
59167;SDS011;44948;55.046;73.266;2022-09-16T04:14:32;7.00;;;3.47;;
59167;SDS011;44948;55.046;73.266;2022-09-16T04:16:18;6.72;;;3.03;;
59167;SDS011;44948;55.046;73.266;2022-09-16T04:18:03;8.63;;;2.92;;
59167;SDS011;44948;55.046;73.266;2022-09-16T04:19:46;9.48;;;3.00;;
59167;SDS011;44948;55.046;73.266;2022-09-16T04:21:30;8.32;;;3.70;;
59167;SDS011;44948;55.046;73.266;2022-09-16T04:23:16;8.60;;;3.88;;
59167;SDS011;44948;55.046;73.266;2022-09-16T04:24:59;9.97;;;4.23;;
59167;SDS011;44948;55.046;73.266;2022-09-16T04:26:50;6.95;;;3.42;;
59167;SDS011;44948;55.046;73.266;2022-09-16T04:28:35;6.22;;;3.38;;
59167;SDS011;44948;55.046;73.266;2022-09-16T04:30:17;10.40;;;3.65;;
59167;SDS011;44948;55.046;73.266;2022-09-16T04:32:03;13.32;;;4.05;;
59167;SDS011;44948;55.046;73.266;2022-09-16T04:33:49;12.13;;;4.45;;
59167;SDS011;44948;55.046;73.266;2022-09-16T04:35:34;13.55;;;4.85;;
59167;SDS011;44948;55.046;73.266;2022-09-16T04:37:23;13.68;;;4.97;;
59167;SDS011;44948;55.046;73.266;2022-09-16T04:39:11;13.77;;;6.03;;
59167;SDS011;44948;55.046;73.266;2022-09-16T04:41:01;15.45;;;6.00;;
59167;SDS011;44948;55.046;73.266;2022-09-16T04:42:49;18.17;;;6.10;;
59167;SDS011;44948;55.046;73.266;2022-09-16T04:44:39;17.42;;;6.90;;
59167;SDS011;44948;55.046;73.266;2022-09-16T04:46:30;19.98;;;6.20;;
59167;SDS011;44948;55.046;73.266;2022-09-16T04:48:18;14.10;;;5.75;;
59167;SDS011;44948;55.046;73.266;2022-09-16T04:50:06;14.63;;;6.18;;
59167;SDS011;44948;55.046;73.266;2022-09-16T04:51:54;20.88;;;7.38;;
59167;SDS011;44948;55.046;73.266;2022-09-16T04:53:42;17.25;;;7.00;;
59167;SDS011;44948;55.046;73.266;2022-09-16T04:55:28;12.70;;;6.15;;
59167;SDS011;44948;55.046;73.266;2022-09-16T04:57:14;19.48;;;6.47;;
59167;SDS011;44948;55.046;73.266;2022-09-16T04:59:01;18.17;;;6.55;;
59167;SDS011;44948;55.046;73.266;2022-09-16T05:00:52;14.45;;;6.82;;
59167;SDS011;44948;55.046;73.266;2022-09-16T05:02:42;12.55;;;7.05;;
59167;SDS011;44948;55.046;73.266;2022-09-16T05:04:28;16.80;;;7.38;;
59167;SDS011;44948;55.046;73.266;2022-09-16T05:06:21;18.70;;;7.70;;
59167;SDS011;44948;55.046;73.266;2022-09-16T05:08:13;14.70;;;8.02;;
59167;SDS011;44948;55.046;73.266;2022-09-16T05:09:56;20.50;;;9.98;;
59167;SDS011;44948;55.046;73.266;2022-09-16T05:11:43;16.55;;;7.65;;
59167;SDS011;44948;55.046;73.266;2022-09-16T05:13:31;17.15;;;7.93;;
59167;SDS011;44948;55.046;73.266;2022-09-16T05:15:17;21.15;;;7.70;;
59167;SDS011;44948;55.046;73.266;2022-09-16T05:17:02;20.80;;;12.40;;
59167;SDS011;44948;55.046;73.266;2022-09-16T05:18:57;20.15;;;9.50;;
59167;SDS011;44948;55.046;73.266;2022-09-16T05:20:46;12.10;;;7.90;;
59167;SDS011;44948;55.046;73.266;2022-09-16T05:22:37;12.27;;;6.22;;
59167;SDS011;44948;55.046;73.266;2022-09-16T05:24:26;17.48;;;5.93;;
59167;SDS011;44948;55.046;73.266;2022-09-16T05:26:16;11.40;;;5.60;;
59167;SDS011;44948;55.046;73.266;2022-09-16T05:28:05;12.13;;;5.18;;
59167;SDS011;44948;55.046;73.266;2022-09-16T05:29:48;15.35;;;4.80;;
59167;SDS011;44948;55.046;73.266;2022-09-16T05:31:34;12.52;;;5.10;;
59167;SDS011;44948;55.046;73.266;2022-09-16T05:33:26;14.82;;;5.32;;
59167;SDS011;44948;55.046;73.266;2022-09-16T05:35:14;12.27;;;4.68;;
59167;SDS011;44948;55.046;73.266;2022-09-16T05:37:15;8.02;;;3.80;;
59167;SDS011;44948;55.046;73.266;2022-09-16T05:38:58;12.82;;;4.00;;
59167;SDS011;44948;55.046;73.266;2022-09-16T05:40:49;9.75;;;4.03;;
59167;SDS011;44948;55.046;73.266;2022-09-16T05:42:32;7.55;;;3.33;;
59167;SDS011;44948;55.046;73.266;2022-09-16T05:44:20;9.15;;;3.42;;
59167;SDS011;44948;55.046;73.266;2022-09-16T05:46:08;9.23;;;3.58;;
59167;SDS011;44948;55.046;73.266;2022-09-16T05:47:58;22.45;;;3.35;;
59167;SDS011;44948;55.046;73.266;2022-09-16T05:49:48;12.38;;;3.28;;
59167;SDS011;44948;55.046;73.266;2022-09-16T05:51:36;6.72;;;3.50;;
59167;SDS011;44948;55.046;73.266;2022-09-16T05:53:32;9.75;;;3.30;;
59167;SDS011;44948;55.046;73.266;2022-09-16T05:55:21;5.18;;;2.30;;
59167;SDS011;44948;55.046;73.266;2022-09-16T05:57:12;4.57;;;2.95;;
59167;SDS011;44948;55.046;73.266;2022-09-16T05:58:59;9.70;;;2.70;;
59167;SDS011;44948;55.046;73.266;2022-09-16T06:00:49;7.43;;;2.22;;
59167;SDS011;44948;55.046;73.266;2022-09-16T06:04:16;11.83;;;2.73;;
59167;SDS011;44948;55.046;73.266;2022-09-16T06:06:05;4.50;;;2.30;;
59167;SDS011;44948;55.046;73.266;2022-09-16T06:07:55;6.78;;;2.13;;
59167;SDS011;44948;55.046;73.266;2022-09-16T06:09:43;12.70;;;2.30;;
59167;SDS011;44948;55.046;73.266;2022-09-16T06:11:28;8.88;;;5.50;;
59167;SDS011;44948;55.046;73.266;2022-09-16T06:13:21;4.05;;;2.50;;
59167;SDS011;44948;55.046;73.266;2022-09-16T06:15:09;4.50;;;2.20;;
59167;SDS011;44948;55.046;73.266;2022-09-16T06:17:00;7.70;;;2.70;;
59167;SDS011;44948;55.046;73.266;2022-09-16T06:18:49;9.82;;;2.47;;
59167;SDS011;44948;55.046;73.266;2022-09-16T06:20:31;3.55;;;2.20;;
59167;SDS011;44948;55.046;73.266;2022-09-16T06:22:21;5.10;;;2.30;;
59167;SDS011;44948;55.046;73.266;2022-09-16T06:24:03;5.28;;;2.35;;
59167;SDS011;44948;55.046;73.266;2022-09-16T06:26:02;5.13;;;3.08;;
59167;SDS011;44948;55.046;73.266;2022-09-16T06:27:55;4.07;;;2.10;;
59167;SDS011;44948;55.046;73.266;2022-09-16T06:29:41;3.45;;;2.63;;
59167;SDS011;44948;55.046;73.266;2022-09-16T06:31:29;6.15;;;2.45;;
59167;SDS011;44948;55.046;73.266;2022-09-16T06:33:14;4.80;;;2.83;;
59167;SDS011;44948;55.046;73.266;2022-09-16T06:35:00;5.55;;;2.35;;
59167;SDS011;44948;55.046;73.266;2022-09-16T06:36:45;4.53;;;2.30;;
59167;SDS011;44948;55.046;73.266;2022-09-16T06:38:28;3.58;;;2.60;;
59167;SDS011;44948;55.046;73.266;2022-09-16T06:40:22;8.00;;;3.20;;
59167;SDS011;44948;55.046;73.266;2022-09-16T06:42:13;7.90;;;3.00;;
59167;SDS011;44948;55.046;73.266;2022-09-16T06:43:59;6.85;;;2.50;;
59167;SDS011;44948;55.046;73.266;2022-09-16T06:45:54;6.70;;;2.75;;
59167;SDS011;44948;55.046;73.266;2022-09-16T06:47:45;6.45;;;3.28;;
59167;SDS011;44948;55.046;73.266;2022-09-16T06:49:34;3.53;;;2.22;;
59167;SDS011;44948;55.046;73.266;2022-09-16T06:51:21;3.65;;;2.70;;
59167;SDS011;44948;55.046;73.266;2022-09-16T06:54:56;7.85;;;3.05;;
59167;SDS011;44948;55.046;73.266;2022-09-16T06:56:55;6.18;;;2.60;;
59167;SDS011;44948;55.046;73.266;2022-09-16T06:58:41;7.20;;;2.55;;
59167;SDS011;44948;55.046;73.266;2022-09-16T07:00:25;5.75;;;2.70;;
59167;SDS011;44948;55.046;73.266;2022-09-16T07:02:14;4.65;;;2.72;;
59167;SDS011;44948;55.046;73.266;2022-09-16T07:04:07;12.33;;;3.47;;
59167;SDS011;44948;55.046;73.266;2022-09-16T07:05:55;7.32;;;2.63;;
59167;SDS011;44948;55.046;73.266;2022-09-16T07:07:44;5.10;;;2.95;;
59167;SDS011;44948;55.046;73.266;2022-09-16T07:09:30;8.85;;;2.95;;
59167;SDS011;44948;55.046;73.266;2022-09-16T07:11:19;6.30;;;2.90;;
59167;SDS011;44948;55.046;73.266;2022-09-16T07:13:05;3.88;;;2.45;;
59167;SDS011;44948;55.046;73.266;2022-09-16T07:14:52;4.15;;;2.70;;
59167;SDS011;44948;55.046;73.266;2022-09-16T07:16:43;7.55;;;2.85;;
59167;SDS011;44948;55.046;73.266;2022-09-16T07:18:29;6.85;;;2.95;;
59167;SDS011;44948;55.046;73.266;2022-09-16T07:20:14;22.20;;;4.15;;
59167;SDS011;44948;55.046;73.266;2022-09-16T07:22:01;6.30;;;2.67;;
59167;SDS011;44948;55.046;73.266;2022-09-16T07:23:46;3.97;;;2.63;;
59167;SDS011;44948;55.046;73.266;2022-09-16T07:25:30;7.05;;;2.55;;
59167;SDS011;44948;55.046;73.266;2022-09-16T07:27:23;8.07;;;2.40;;
59167;SDS011;44948;55.046;73.266;2022-09-16T07:29:06;5.65;;;2.50;;
59167;SDS011;44948;55.046;73.266;2022-09-16T07:30:51;8.27;;;2.78;;
59167;SDS011;44948;55.046;73.266;2022-09-16T07:32:33;4.20;;;2.60;;
59167;SDS011;44948;55.046;73.266;2022-09-16T07:34:16;4.90;;;2.50;;
59167;SDS011;44948;55.046;73.266;2022-09-16T07:35:59;8.32;;;2.50;;
59167;SDS011;44948;55.046;73.266;2022-09-16T07:39:23;15.52;;;9.32;;
59167;SDS011;44948;55.046;73.266;2022-09-16T07:41:07;8.15;;;3.55;;
59167;SDS011;44948;55.046;73.266;2022-09-16T07:42:52;5.88;;;3.25;;
59167;SDS011;44948;55.046;73.266;2022-09-16T07:44:34;5.95;;;2.80;;
59167;SDS011;44948;55.046;73.266;2022-09-16T07:46:18;5.65;;;2.60;;
59167;SDS011;44948;55.046;73.266;2022-09-16T07:48:01;6.82;;;2.80;;
59167;SDS011;44948;55.046;73.266;2022-09-16T07:49:43;8.73;;;2.58;;
59167;SDS011;44948;55.046;73.266;2022-09-16T07:51:26;24.93;;;11.07;;
59167;SDS011;44948;55.046;73.266;2022-09-16T07:53:09;14.68;;;6.88;;
59167;SDS011;44948;55.046;73.266;2022-09-16T07:54:51;7.77;;;3.07;;
59167;SDS011;44948;55.046;73.266;2022-09-16T07:56:34;10.57;;;3.40;;
59167;SDS011;44948;55.046;73.266;2022-09-16T07:58:18;4.43;;;2.45;;
59167;SDS011;44948;55.046;73.266;2022-09-16T08:02:03;4.75;;;2.55;;
59167;SDS011;44948;55.046;73.266;2022-09-16T08:03:46;4.93;;;2.40;;
59167;SDS011;44948;55.046;73.266;2022-09-16T08:05:28;9.60;;;3.72;;
59167;SDS011;44948;55.046;73.266;2022-09-16T08:07:11;8.20;;;3.88;;
59167;SDS011;44948;55.046;73.266;2022-09-16T08:08:54;7.78;;;2.83;;
59167;SDS011;44948;55.046;73.266;2022-09-16T08:10:38;5.35;;;3.00;;
59167;SDS011;44948;55.046;73.266;2022-09-16T08:12:20;8.25;;;2.22;;
59167;SDS011;44948;55.046;73.266;2022-09-16T08:14:02;4.53;;;2.55;;
59167;SDS011;44948;55.046;73.266;2022-09-16T08:15:47;4.10;;;2.40;;
59167;SDS011;44948;55.046;73.266;2022-09-16T08:17:30;7.38;;;2.60;;
59167;SDS011;44948;55.046;73.266;2022-09-16T08:19:14;7.18;;;2.88;;
59167;SDS011;44948;55.046;73.266;2022-09-16T08:20:58;5.60;;;2.53;;
59167;SDS011;44948;55.046;73.266;2022-09-16T08:22:48;5.28;;;2.13;;
59167;SDS011;44948;55.046;73.266;2022-09-16T08:24:30;7.45;;;2.45;;
59167;SDS011;44948;55.046;73.266;2022-09-16T08:26:13;7.63;;;2.65;;
59167;SDS011;44948;55.046;73.266;2022-09-16T08:27:57;7.72;;;2.25;;
59167;SDS011;44948;55.046;73.266;2022-09-16T08:31:22;6.63;;;2.85;;
59167;SDS011;44948;55.046;73.266;2022-09-16T08:33:04;7.33;;;1.90;;
59167;SDS011;44948;55.046;73.266;2022-09-16T08:34:46;5.90;;;2.40;;
59167;SDS011;44948;55.046;73.266;2022-09-16T08:36:29;8.90;;;2.78;;
59167;SDS011;44948;55.046;73.266;2022-09-16T08:38:14;9.25;;;2.10;;
59167;SDS011;44948;55.046;73.266;2022-09-16T08:39:56;7.50;;;2.00;;
59167;SDS011;44948;55.046;73.266;2022-09-16T08:43:43;5.15;;;2.70;;
59167;SDS011;44948;55.046;73.266;2022-09-16T08:49:40;4.47;;;1.88;;
59167;SDS011;44948;55.046;73.266;2022-09-16T08:51:25;10.98;;;2.05;;
59167;SDS011;44948;55.046;73.266;2022-09-16T08:53:14;4.57;;;1.70;;
59167;SDS011;44948;55.046;73.266;2022-09-16T08:56:54;4.07;;;1.77;;
59167;SDS011;44948;55.046;73.266;2022-09-16T08:58:42;4.32;;;1.92;;
59167;SDS011;44948;55.046;73.266;2022-09-16T09:00:29;4.63;;;1.95;;
59167;SDS011;44948;55.046;73.266;2022-09-16T09:04:19;2.90;;;1.73;;
59167;SDS011;44948;55.046;73.266;2022-09-16T09:06:02;15.33;;;2.47;;
59167;SDS011;44948;55.046;73.266;2022-09-16T09:07:54;12.85;;;8.95;;
59167;SDS011;44948;55.046;73.266;2022-09-16T09:11:45;3.95;;;2.03;;
59167;SDS011;44948;55.046;73.266;2022-09-16T09:15:56;4.00;;;1.23;;
59167;SDS011;44948;55.046;73.266;2022-09-16T09:19:36;3.63;;;1.80;;
59167;SDS011;44948;55.046;73.266;2022-09-16T09:23:31;3.03;;;1.30;;
59167;SDS011;44948;55.046;73.266;2022-09-16T09:29:49;4.53;;;1.70;;
59167;SDS011;44948;55.046;73.266;2022-09-16T09:36:08;9.77;;;5.15;;
59167;SDS011;44948;55.046;73.266;2022-09-16T09:40:01;5.95;;;3.28;;
59167;SDS011;44948;55.046;73.266;2022-09-16T09:44:23;4.68;;;1.38;;
59167;SDS011;44948;55.046;73.266;2022-09-16T09:48:18;6.68;;;1.98;;
59167;SDS011;44948;55.046;73.266;2022-09-16T09:51:05;6.63;;;4.47;;
59167;SDS011;44948;55.046;73.266;2022-09-16T09:52:34;17.08;;;2.83;;
59167;SDS011;44948;55.046;73.266;2022-09-16T10:01:59;21.23;;;6.45;;
59167;SDS011;44948;55.046;73.266;2022-09-16T10:03:42;8.00;;;4.63;;
59167;SDS011;44948;55.046;73.266;2022-09-16T10:05:26;10.77;;;5.80;;
59167;SDS011;44948;55.046;73.266;2022-09-16T10:07:10;8.13;;;5.25;;
59167;SDS011;44948;55.046;73.266;2022-09-16T10:08:56;4.88;;;2.05;;
59167;SDS011;44948;55.046;73.266;2022-09-16T10:10:49;6.47;;;2.10;;
59167;SDS011;44948;55.046;73.266;2022-09-16T10:12:34;9.73;;;2.80;;
59167;SDS011;44948;55.046;73.266;2022-09-16T10:14:25;5.95;;;1.88;;
59167;SDS011;44948;55.046;73.266;2022-09-16T10:17:52;6.22;;;1.50;;
59167;SDS011;44948;55.046;73.266;2022-09-16T10:19:38;11.13;;;4.65;;
59167;SDS011;44948;55.046;73.266;2022-09-16T10:23:53;4.85;;;2.30;;
59167;SDS011;44948;55.046;73.266;2022-09-16T10:25:37;6.70;;;2.78;;
59167;SDS011;44948;55.046;73.266;2022-09-16T10:27:31;8.65;;;2.10;;
59167;SDS011;44948;55.046;73.266;2022-09-16T10:29:17;5.25;;;2.10;;
59167;SDS011;44948;55.046;73.266;2022-09-16T10:31:00;9.65;;;3.33;;
59167;SDS011;44948;55.046;73.266;2022-09-16T10:33:02;4.20;;;1.92;;
59167;SDS011;44948;55.046;73.266;2022-09-16T10:34:48;7.60;;;1.83;;
59167;SDS011;44948;55.046;73.266;2022-09-16T10:36:32;5.38;;;1.70;;
59167;SDS011;44948;55.046;73.266;2022-09-16T10:40:02;7.22;;;2.17;;
59167;SDS011;44948;55.046;73.266;2022-09-16T10:41:47;13.10;;;4.82;;
59167;SDS011;44948;55.046;73.266;2022-09-16T10:43:31;7.28;;;1.67;;
59167;SDS011;44948;55.046;73.266;2022-09-16T10:45:14;12.93;;;5.03;;
59167;SDS011;44948;55.046;73.266;2022-09-16T10:47:05;5.13;;;1.60;;
59167;SDS011;44948;55.046;73.266;2022-09-16T10:48:58;6.03;;;1.52;;
59167;SDS011;44948;55.046;73.266;2022-09-16T10:50:56;5.10;;;1.48;;
59167;SDS011;44948;55.046;73.266;2022-09-16T10:52:44;5.40;;;1.42;;
59167;SDS011;44948;55.046;73.266;2022-09-16T10:54:28;2.40;;;1.08;;
59167;SDS011;44948;55.046;73.266;2022-09-16T10:56:15;6.10;;;1.27;;
59167;SDS011;44948;55.046;73.266;2022-09-16T10:58:15;4.97;;;1.27;;
59167;SDS011;44948;55.046;73.266;2022-09-16T11:00:12;7.15;;;1.45;;
59167;SDS011;44948;55.046;73.266;2022-09-16T11:02:17;4.88;;;1.27;;
59167;SDS011;44948;55.046;73.266;2022-09-16T11:10:38;3.67;;;1.02;;
59167;SDS011;44948;55.046;73.266;2022-09-16T11:13:00;4.03;;;1.77;;
59167;SDS011;44948;55.046;73.266;2022-09-16T11:17:02;6.30;;;2.10;;
59167;SDS011;44948;55.046;73.266;2022-09-16T11:25:20;6.60;;;1.35;;
59167;SDS011;44948;55.046;73.266;2022-09-16T11:31:29;4.95;;;1.60;;
59167;SDS011;44948;55.046;73.266;2022-09-16T11:35:32;8.18;;;2.25;;
59167;SDS011;44948;55.046;73.266;2022-09-16T11:37:40;4.88;;;1.90;;
59167;SDS011;44948;55.046;73.266;2022-09-16T11:39:35;7.88;;;1.85;;
59167;SDS011;44948;55.046;73.266;2022-09-16T11:58:09;10.30;;;2.38;;
59167;SDS011;44948;55.046;73.266;2022-09-16T12:00:04;7.93;;;2.90;;
59167;SDS011;44948;55.046;73.266;2022-09-16T12:04:09;10.77;;;3.55;;
59167;SDS011;44948;55.046;73.266;2022-09-16T12:05:58;6.60;;;2.47;;
59167;SDS011;44948;55.046;73.266;2022-09-16T12:09:54;14.10;;;6.18;;
59167;SDS011;44948;55.046;73.266;2022-09-16T12:11:44;23.50;;;10.52;;
59167;SDS011;44948;55.046;73.266;2022-09-16T12:15:28;12.43;;;4.07;;
59167;SDS011;44948;55.046;73.266;2022-09-16T12:17:20;9.68;;;2.88;;
59167;SDS011;44948;55.046;73.266;2022-09-16T12:19:51;14.50;;;3.25;;
59167;SDS011;44948;55.046;73.266;2022-09-16T12:23:19;12.90;;;3.00;;
59167;SDS011;44948;55.046;73.266;2022-09-16T12:30:38;16.55;;;3.45;;
59167;SDS011;44948;55.046;73.266;2022-09-16T12:36:31;22.85;;;10.20;;
59167;SDS011;44948;55.046;73.266;2022-09-16T12:38:17;19.52;;;7.45;;
59167;SDS011;44948;55.046;73.266;2022-09-16T12:40:02;44.95;;;23.08;;
59167;SDS011;44948;55.046;73.266;2022-09-16T12:47:53;58.97;;;32.78;;
59167;SDS011;44948;55.046;73.266;2022-09-16T13:02:17;31.33;;;14.63;;
59167;SDS011;44948;55.046;73.266;2022-09-16T13:04:03;43.13;;;15.75;;
59167;SDS011;44948;55.046;73.266;2022-09-16T13:05:54;19.77;;;8.57;;
59167;SDS011;44948;55.046;73.266;2022-09-16T13:07:41;33.63;;;16.05;;
59167;SDS011;44948;55.046;73.266;2022-09-16T13:09:34;32.90;;;15.23;;
59167;SDS011;44948;55.046;73.266;2022-09-16T13:11:23;39.97;;;13.52;;
59167;SDS011;44948;55.046;73.266;2022-09-16T13:13:14;29.63;;;12.27;;
59167;SDS011;44948;55.046;73.266;2022-09-16T13:15:19;37.58;;;14.65;;
59167;SDS011;44948;55.046;73.266;2022-09-16T13:17:08;30.33;;;14.05;;
59167;SDS011;44948;55.046;73.266;2022-09-16T13:19:12;28.77;;;12.35;;
59167;SDS011;44948;55.046;73.266;2022-09-16T13:23:27;28.67;;;11.52;;
59167;SDS011;44948;55.046;73.266;2022-09-16T13:27:25;52.65;;;11.88;;
59167;SDS011;44948;55.046;73.266;2022-09-16T13:29:39;53.28;;;12.77;;
59167;SDS011;44948;55.046;73.266;2022-09-16T13:31:28;48.58;;;14.65;;
59167;SDS011;44948;55.046;73.266;2022-09-16T13:35:02;64.35;;;26.77;;
59167;SDS011;44948;55.046;73.266;2022-09-16T13:37:13;57.47;;;17.15;;
59167;SDS011;44948;55.046;73.266;2022-09-16T13:38:57;60.83;;;17.77;;
59167;SDS011;44948;55.046;73.266;2022-09-16T13:40:54;57.08;;;19.17;;